KBWI/BWI METAR and TAF weather

Enter ICAO airport designator
Station Type Date Time Source
KBWI METAR 2019/12/12 11:54 UTC NOAA

KBWI 121154Z VRB03KT 10SM FEW250 M02/M11 A3070 RMK AO2 SLP396 T10221106 11011 21033 53018


Station Type Date Time Source
KBWI Decoded METAR 2019/12/12 11:54 UTC NOAA

BALTIMORE-WASHINGTON INTERNATIONAL , MD, United States (KBWI) 39-10N 076-41W 59M
Dec 12, 2019 - 06:54 AM EST / 2019.12.12 1154 UTC
Wind: Variable at 3 MPH (3 KT):0
Visibility: 10 mile(s):0
Sky conditions: mostly clear
Temperature: 28.0 F (-2.2 C)
Dew Point: 12.9 F (-10.6 C)
Relative Humidity: 52%
Pressure (altimeter): 30.7 in. Hg (1039 hPa)
Pressure tendency: 0.05 inches (1.8 hPa) higher than three hours ago
ob: KBWI 121154Z VRB03KT 10SM FEW250 M02/M11 A3070 RMK AO2 SLP396 T10221106 11011 21033 53018
cycle: 12

Station Type Date Time Source
KBWI TAF 2019/12/12 12:22 UTC NOAA

TAF KBWI 121120Z 1212/1318 VRB04KT P6SM SCT200
FM130600 VRB03KT P6SM BKN050
FM130800 VRB03KT P6SM BKN030
FM131500 VRB03KT P6SM OVC020

Example: see airport list